Samara, Russia

6:48 PM SAMT on December 18, 2014 (GMT +0400)
Kurumoch | Change Station
CLOSE
Current Station
Airport
Location: Samara,
Elevation: 476 ft
Nearby Weather Stations

Elev 476 ft 53.50 °N, 50.16 °E | Updated 18 minutes ago

Overcast
Overcast
21 °F
Feels Like 8 °F
N
13
Wind Variable Wind from SSW
Gusts 20 mph

Today
High -- | Low -- °F
--% Chance of Precip.
Yesterday
High -- | Low -- °F
Precip. -- in
8:48 AM 4:20 PM
Waning Crescent, 14% visible
Pressure 30.06 in
Visibility 6.2 miles
Clouds Mostly Cloudy 1000 ft
Overcast 10000 ft
Windchill 8 °F
Dew Point 18 °F
Humidity 86%
Rainfall 0.00 in
Snow Depth Not available.
UV 0 out of 12
Pollen Not available.
Air Quality Not available.
Flu Activity Not available.
METAR UWWW 181430Z 20006G09MPS 9999 BKN010 OVC100 M06/M08 Q1018 23550540 15//99// NOSIG RMK QFE752/1003

More Conditions Fewer Conditions

Pressure 30.06 in
Visibility 6.2 miles
Clouds Mostly Cloudy 1000 ft
Overcast 10000 ft
Windchill 8 °F
Dew Point 18 °F
Humidity 86%
Rainfall 0.00 in
Snow Depth Not available.
UV 0 out of 12
Pollen Not available.
Air Quality Not available.
Flu Activity Not available.
METAR UWWW 181430Z 20006G09MPS 9999 BKN010 OVC100 M06/M08 Q1018 23550540 15//99// NOSIG RMK QFE752/1003

More Conditions Fewer Conditions

10-Day Weather Forecast

Almanac

Astronomy

Dec. 18, 2014 Rise Set
Actual Time
Civil Twilight
Nautical Twilight
Astronomical Twilight
Moon
Length of Visible Light
Length of Day
Tomorrow will be .
, % of the Moon is Illuminated

Today's Extremes

Country Highs Country Lows

Community

WunderPhotos

Upload Photos

1,778,929 photos uploaded!

WunderBlogs® & News

Nearby

Air Quality

  Air Quality AQ Index Pollutant
Not available.

Snow Depth

Station Depth Elevation

Earthquake Activity

City Distance Mag. Time & Date
Minimum magnitude displayed is 2.5.

Coastal Water Temperatures

Place Temperature

Nearby Weather Stations